Private Wetterstation Nrnberg - Katzwang
Wetterdaten: August 2014
Datum Temp. A. Feuchte A. Luftdruck Regen Wind Richtung Taupunkt Windchill Windben
01.08.2014 21,1 C 64 % 1010 hPa 0,0 l/m 2,7 km/h N-NO 13,6 C 20,9 C 3,7 km/h
02.08.2014 21,7 C 74 % 1007 hPa 3,6 l/m 0,3 km/h NO 16,5 C 21,7 C 1,4 km/h
03.08.2014 21,5 C 73 % 1010 hPa 8,3 l/m 1,0 km/h W-NW 16,4 C 21,5 C 2,0 km/h
04.08.2014 19,3 C 81 % 1013 hPa 24,3 l/m 0,0 km/h N-NO 15,9 C 19,3 C 1,0 km/h
05.08.2014 19,8 C 70 % 1016 hPa 0,0 l/m 3,3 km/h W-NW 14,0 C 19,8 C 4,3 km/h
06.08.2014 20,1 C 69 % 1014 hPa 0,0 l/m 0,0 km/h O 13,9 C 20,1 C 1,0 km/h
07.08.2014 20,8 C 70 % 1013 hPa 0,5 l/m 0,0 km/h W-NW 14,9 C 20,8 C 1,0 km/h
08.08.2014 21,9 C 66 % 1011 hPa 0,0 l/m 4,1 km/h N-NO 15,0 C 21,6 C 5,1 km/h
09.08.2014 21,8 C 66 % 1011 hPa 0,0 l/m 0,9 km/h W-NW 15,0 C 21,8 C 1,9 km/h
10.08.2014 24,9 C 62 % 1007 hPa 5,7 l/m 7,9 km/h NO 16,8 C 24,0 C 8,9 km/h
11.08.2014 20,8 C 66 % 1012 hPa 0,0 l/m 3,6 km/h W-NW 13,8 C 20,8 C 4,6 km/h
12.08.2014 18,6 C 67 % 1011 hPa 0,0 l/m 5,3 km/h W-NW 12,1 C 18,0 C 6,3 km/h
13.08.2014 16,0 C 76 % 1005 hPa 3,1 l/m 7,9 km/h NO 11,8 C 14,8 C 8,9 km/h
14.08.2014 15,5 C 77 % 1011 hPa 7,3 l/m 1,7 km/h W-NW 11,3 C 15,5 C 2,7 km/h
15.08.2014 15,1 C 77 % 1012 hPa 3,1 l/m 2,7 km/h W-NW 11,1 C 15,1 C 3,7 km/h
16.08.2014 15,3 C 76 % 1016 hPa 4,1 l/m 0,7 km/h W-NW 11,0 C 15,3 C 1,7 km/h
17.08.2014 17,5 C 67 % 1012 hPa 0,5 l/m 3,1 km/h W-NW 11,0 C 17,2 C 4,1 km/h
18.08.2014 16,0 C 70 % 1009 hPa 0,0 l/m 8,2 km/h W-NW 10,4 C 14,6 C 9,2 km/h
19.08.2014 16,6 C 65 % 1010 hPa 0,0 l/m 0,0 km/h W-NW 9,8 C 16,6 C 1,0 km/h
20.08.2014 15,4 C 67 % 1014 hPa 0,0 l/m 0,0 km/h W-NW 9,0 C 15,4 C 1,0 km/h
21.08.2014 16,2 C 63 % 1014 hPa 0,0 l/m 1,0 km/h W-NW 8,5 C 16,2 C 2,0 km/h
22.08.2014 15,5 C 63 % 1013 hPa 0,0 l/m 2,9 km/h W-NW 8,1 C 15,1 C 3,9 km/h
23.08.2014 15,0 C 71 % 1012 hPa 0,5 l/m 1,4 km/h W-NW 9,6 C 15,0 C 2,4 km/h
24.08.2014 14,4 C 64 % 1016 hPa 0,0 l/m 0,0 km/h W-NW 7,5 C 14,4 C 1,0 km/h
25.08.2014 15,7 C 63 % 1013 hPa 0,0 l/m 1,0 km/h O-NO 8,2 C 15,7 C 2,0 km/h
26.08.2014 16,1 C 80 % 1004 hPa 18,6 l/m 2,7 km/h N-NO 12,7 C 15,7 C 7,2 km/h
27.08.2014 15,2 C 75 % 1014 hPa 8,3 l/m 4,3 km/h W-NW 10,7 C 14,6 C 5,3 km/h
28.08.2014 17,5 C 70 % 1015 hPa 0,0 l/m 1,5 km/h NO 11,6 C 17,5 C 2,5 km/h
29.08.2014 18,7 C 73 % 1014 hPa 0,0 l/m 0,0 km/h W-NW 13,7 C 18,7 C 1,0 km/h
30.08.2014 18,1 C 70 % 1015 hPa 0,0 l/m 2,7 km/h W-NW 12,4 C 18,0 C 3,7 km/h
31.08.2014 14,3 C 84 % 1012 hPa 20,2 l/m 0,0 km/h N-NO 11,5 C 14,3 C 1,0 km/h
Min-Datum 25.08.14 21.08.14 13.08.14 14 Tage 01.08.14 - 25.08.14 25.08.14 01.08.14
Min-Zeit 06:40 14:30 16:30 - 00:00 - 06:40 05:40 00:00
Minimum 6,9 C 40 % 1002 hPa - 0,0 km/h - 3,5 C 5,0 C 1,0 km/h
Max-Datum 10.08.14 15.08.14 16.08.14 04.08.14 24.08.14 - 02.08.14 10.08.14 10.08.14
Max-Zeit 15:10 06:50 21:40 14:10 14:10 - 16:20 15:10 22:40
Maximum 31,9 C 85 % 1018 hPa 24,3 l/m 31,5 km/h
W-NW
- 20,6 C 31,9 C 55,7 km/h
NO
Durchschnitt 18,0 C 70 % 1012 hPa #108,3 l/m 2,3 km/h W-NW 12,2 C 17,7 C 3,4 km/h

Durchschnitt Minimum Temp.13,5 C
Durchschnitt Maximum Temp.23,5 C